Terminal Aerodrome Forecast
Issued by NWS

Home | Current Version | Previous Version | Text Only | Print | Product List | Glossary On
Versions: 1 2 3 4 5 6 7 8 9 10 11 12 13 14
000
FTUS45 KRIW 251135
TAFCOD
TAF
KCOD 251135Z 2512/2612 VRB05KT P6SM FEW080
     FM251600 32010KT P6SM SCT060 BKN090
     FM252100 02010KT P6SM VCSH SCT040 BKN070
     FM260400 VRB05KT P6SM VCSH BKN060
      AMD LTD TO CLD VIS AND WIND=

USA.gov is the U.S. government's official web portal to all federal, state and local government web resources and services.